sensor_id;sensor_type;location;lat;lon;timestamp;P1;durP1;ratioP1;P2;durP2;ratioP2
10467;SDS011;5281;48.878;9.394;2022-11-20T00:01:22;8.27;;;6.73;;
10467;SDS011;5281;48.878;9.394;2022-11-20T00:03:50;8.67;;;6.40;;
10467;SDS011;5281;48.878;9.394;2022-11-20T00:06:18;8.57;;;6.80;;
10467;SDS011;5281;48.878;9.394;2022-11-20T00:08:46;7.60;;;6.33;;
10467;SDS011;5281;48.878;9.394;2022-11-20T00:11:14;8.47;;;6.10;;
10467;SDS011;5281;48.878;9.394;2022-11-20T00:13:42;8.63;;;6.33;;
10467;SDS011;5281;48.878;9.394;2022-11-20T00:16:09;7.33;;;6.00;;
10467;SDS011;5281;48.878;9.394;2022-11-20T00:18:39;8.37;;;5.97;;
10467;SDS011;5281;48.878;9.394;2022-11-20T00:21:09;8.27;;;6.37;;
10467;SDS011;5281;48.878;9.394;2022-11-20T00:23:37;9.57;;;6.63;;
10467;SDS011;5281;48.878;9.394;2022-11-20T00:26:05;7.60;;;6.37;;
10467;SDS011;5281;48.878;9.394;2022-11-20T00:28:33;9.23;;;7.17;;
10467;SDS011;5281;48.878;9.394;2022-11-20T00:31:01;9.50;;;7.23;;
10467;SDS011;5281;48.878;9.394;2022-11-20T00:33:29;11.40;;;8.13;;
10467;SDS011;5281;48.878;9.394;2022-11-20T00:36:00;9.90;;;7.90;;
10467;SDS011;5281;48.878;9.394;2022-11-20T00:38:27;9.60;;;7.53;;
10467;SDS011;5281;48.878;9.394;2022-11-20T00:40:55;11.87;;;7.80;;
10467;SDS011;5281;48.878;9.394;2022-11-20T00:43:22;12.10;;;7.93;;
10467;SDS011;5281;48.878;9.394;2022-11-20T00:45:49;11.33;;;8.90;;
10467;SDS011;5281;48.878;9.394;2022-11-20T00:48:16;10.27;;;8.00;;
10467;SDS011;5281;48.878;9.394;2022-11-20T00:50:43;10.93;;;7.90;;
10467;SDS011;5281;48.878;9.394;2022-11-20T00:53:11;10.23;;;7.87;;
10467;SDS011;5281;48.878;9.394;2022-11-20T00:55:38;9.80;;;7.57;;
10467;SDS011;5281;48.878;9.394;2022-11-20T00:58:06;9.97;;;7.60;;
10467;SDS011;5281;48.878;9.394;2022-11-20T01:00:32;8.87;;;7.43;;
10467;SDS011;5281;48.878;9.394;2022-11-20T01:03:00;8.77;;;6.90;;
10467;SDS011;5281;48.878;9.394;2022-11-20T01:05:27;11.10;;;8.40;;
10467;SDS011;5281;48.878;9.394;2022-11-20T01:07:53;9.93;;;7.83;;
10467;SDS011;5281;48.878;9.394;2022-11-20T01:10:22;9.07;;;7.83;;
10467;SDS011;5281;48.878;9.394;2022-11-20T01:12:48;11.87;;;7.63;;
10467;SDS011;5281;48.878;9.394;2022-11-20T01:15:35;8.77;;;7.20;;
10467;SDS011;5281;48.878;9.394;2022-11-20T01:18:02;9.90;;;7.80;;
10467;SDS011;5281;48.878;9.394;2022-11-20T01:20:30;11.80;;;8.20;;
10467;SDS011;5281;48.878;9.394;2022-11-20T01:22:59;14.17;;;10.77;;
10467;SDS011;5281;48.878;9.394;2022-11-20T01:25:28;9.37;;;7.57;;
10467;SDS011;5281;48.878;9.394;2022-11-20T01:27:55;9.83;;;7.60;;
10467;SDS011;5281;48.878;9.394;2022-11-20T01:30:22;11.67;;;8.60;;
10467;SDS011;5281;48.878;9.394;2022-11-20T01:32:48;11.77;;;8.17;;
10467;SDS011;5281;48.878;9.394;2022-11-20T01:35:16;10.77;;;8.43;;
10467;SDS011;5281;48.878;9.394;2022-11-20T01:37:42;10.87;;;7.93;;
10467;SDS011;5281;48.878;9.394;2022-11-20T01:40:09;11.27;;;8.20;;
10467;SDS011;5281;48.878;9.394;2022-11-20T01:42:38;9.60;;;6.90;;
10467;SDS011;5281;48.878;9.394;2022-11-20T01:45:50;8.60;;;7.50;;
10467;SDS011;5281;48.878;9.394;2022-11-20T01:48:24;9.97;;;7.87;;
10467;SDS011;5281;48.878;9.394;2022-11-20T01:50:54;10.17;;;7.63;;
10467;SDS011;5281;48.878;9.394;2022-11-20T01:53:23;8.97;;;7.20;;
10467;SDS011;5281;48.878;9.394;2022-11-20T01:55:55;9.70;;;7.43;;
10467;SDS011;5281;48.878;9.394;2022-11-20T01:58:27;9.83;;;7.53;;
10467;SDS011;5281;48.878;9.394;2022-11-20T02:00:58;9.03;;;7.77;;
10467;SDS011;5281;48.878;9.394;2022-11-20T02:03:25;9.80;;;7.30;;
10467;SDS011;5281;48.878;9.394;2022-11-20T02:05:54;10.33;;;7.43;;
10467;SDS011;5281;48.878;9.394;2022-11-20T02:08:25;9.30;;;6.57;;
10467;SDS011;5281;48.878;9.394;2022-11-20T02:10:52;8.00;;;6.23;;
10467;SDS011;5281;48.878;9.394;2022-11-20T02:13:19;7.73;;;6.03;;
10467;SDS011;5281;48.878;9.394;2022-11-20T02:16:05;7.40;;;5.10;;
10467;SDS011;5281;48.878;9.394;2022-11-20T02:18:36;5.60;;;4.60;;
10467;SDS011;5281;48.878;9.394;2022-11-20T02:21:05;5.10;;;4.50;;
10467;SDS011;5281;48.878;9.394;2022-11-20T02:23:36;5.40;;;4.33;;
10467;SDS011;5281;48.878;9.394;2022-11-20T02:26:07;6.70;;;4.70;;
10467;SDS011;5281;48.878;9.394;2022-11-20T02:28:38;4.63;;;4.23;;
10467;SDS011;5281;48.878;9.394;2022-11-20T02:31:05;6.60;;;4.43;;
10467;SDS011;5281;48.878;9.394;2022-11-20T02:33:32;5.60;;;4.10;;
10467;SDS011;5281;48.878;9.394;2022-11-20T02:35:59;5.33;;;3.97;;
10467;SDS011;5281;48.878;9.394;2022-11-20T02:38:26;6.30;;;4.37;;
10467;SDS011;5281;48.878;9.394;2022-11-20T02:40:53;6.43;;;4.73;;
10467;SDS011;5281;48.878;9.394;2022-11-20T02:43:21;4.30;;;3.90;;
10467;SDS011;5281;48.878;9.394;2022-11-20T02:45:48;6.63;;;4.00;;
10467;SDS011;5281;48.878;9.394;2022-11-20T02:48:15;3.53;;;3.20;;
10467;SDS011;5281;48.878;9.394;2022-11-20T02:50:42;3.53;;;2.93;;
10467;SDS011;5281;48.878;9.394;2022-11-20T02:53:09;5.53;;;3.30;;
10467;SDS011;5281;48.878;9.394;2022-11-20T02:55:35;3.97;;;2.93;;
10467;SDS011;5281;48.878;9.394;2022-11-20T02:58:02;2.97;;;2.47;;
10467;SDS011;5281;48.878;9.394;2022-11-20T03:00:30;3.20;;;2.70;;
10467;SDS011;5281;48.878;9.394;2022-11-20T03:02:58;3.93;;;2.80;;
10467;SDS011;5281;48.878;9.394;2022-11-20T03:05:25;3.63;;;2.57;;
10467;SDS011;5281;48.878;9.394;2022-11-20T03:07:52;4.10;;;3.00;;
10467;SDS011;5281;48.878;9.394;2022-11-20T03:10:18;4.33;;;3.00;;
10467;SDS011;5281;48.878;9.394;2022-11-20T03:12:45;3.37;;;2.60;;
10467;SDS011;5281;48.878;9.394;2022-11-20T03:15:12;4.07;;;2.57;;
10467;SDS011;5281;48.878;9.394;2022-11-20T03:17:40;5.03;;;3.03;;
10467;SDS011;5281;48.878;9.394;2022-11-20T03:20:07;5.07;;;2.50;;
10467;SDS011;5281;48.878;9.394;2022-11-20T03:22:35;5.20;;;2.90;;
10467;SDS011;5281;48.878;9.394;2022-11-20T03:25:02;4.90;;;2.90;;
10467;SDS011;5281;48.878;9.394;2022-11-20T03:27:31;3.27;;;2.63;;
10467;SDS011;5281;48.878;9.394;2022-11-20T03:29:59;2.73;;;2.23;;
10467;SDS011;5281;48.878;9.394;2022-11-20T03:32:26;3.73;;;2.60;;
10467;SDS011;5281;48.878;9.394;2022-11-20T03:34:54;2.30;;;2.10;;
10467;SDS011;5281;48.878;9.394;2022-11-20T03:37:21;4.13;;;2.20;;
10467;SDS011;5281;48.878;9.394;2022-11-20T03:39:48;2.47;;;2.27;;
10467;SDS011;5281;48.878;9.394;2022-11-20T03:42:14;4.13;;;1.73;;
10467;SDS011;5281;48.878;9.394;2022-11-20T03:44:55;3.37;;;3.00;;
10467;SDS011;5281;48.878;9.394;2022-11-20T03:47:22;4.60;;;2.77;;
10467;SDS011;5281;48.878;9.394;2022-11-20T03:49:49;4.67;;;2.70;;
10467;SDS011;5281;48.878;9.394;2022-11-20T03:52:17;3.20;;;2.60;;
10467;SDS011;5281;48.878;9.394;2022-11-20T03:54:44;2.87;;;2.43;;
10467;SDS011;5281;48.878;9.394;2022-11-20T03:57:10;2.60;;;2.20;;
10467;SDS011;5281;48.878;9.394;2022-11-20T03:59:37;2.50;;;2.00;;
10467;SDS011;5281;48.878;9.394;2022-11-20T04:02:04;4.33;;;2.20;;
10467;SDS011;5281;48.878;9.394;2022-11-20T04:04:31;3.57;;;2.10;;
10467;SDS011;5281;48.878;9.394;2022-11-20T04:06:58;2.47;;;2.00;;
10467;SDS011;5281;48.878;9.394;2022-11-20T04:09:26;2.33;;;2.00;;
10467;SDS011;5281;48.878;9.394;2022-11-20T04:11:53;2.77;;;2.03;;
10467;SDS011;5281;48.878;9.394;2022-11-20T04:14:19;2.70;;;2.00;;
10467;SDS011;5281;48.878;9.394;2022-11-20T04:16:46;3.77;;;2.00;;
10467;SDS011;5281;48.878;9.394;2022-11-20T04:19:14;2.27;;;1.90;;
10467;SDS011;5281;48.878;9.394;2022-11-20T04:21:42;3.07;;;2.50;;
10467;SDS011;5281;48.878;9.394;2022-11-20T04:24:09;2.30;;;2.07;;
10467;SDS011;5281;48.878;9.394;2022-11-20T04:26:37;2.73;;;1.80;;
10467;SDS011;5281;48.878;9.394;2022-11-20T04:29:05;2.83;;;1.97;;
10467;SDS011;5281;48.878;9.394;2022-11-20T04:31:32;2.97;;;2.07;;
10467;SDS011;5281;48.878;9.394;2022-11-20T04:34:00;4.17;;;2.30;;
10467;SDS011;5281;48.878;9.394;2022-11-20T04:36:28;5.30;;;2.00;;
10467;SDS011;5281;48.878;9.394;2022-11-20T04:38:56;3.10;;;2.47;;
10467;SDS011;5281;48.878;9.394;2022-11-20T04:41:24;2.73;;;2.20;;
10467;SDS011;5281;48.878;9.394;2022-11-20T04:43:54;2.77;;;2.47;;
10467;SDS011;5281;48.878;9.394;2022-11-20T04:46:27;3.67;;;2.10;;
10467;SDS011;5281;48.878;9.394;2022-11-20T04:48:55;2.97;;;2.13;;
10467;SDS011;5281;48.878;9.394;2022-11-20T04:51:22;2.07;;;1.87;;
10467;SDS011;5281;48.878;9.394;2022-11-20T04:53:49;2.43;;;2.13;;
10467;SDS011;5281;48.878;9.394;2022-11-20T04:56:16;2.67;;;2.10;;
10467;SDS011;5281;48.878;9.394;2022-11-20T04:58:43;3.20;;;2.20;;
10467;SDS011;5281;48.878;9.394;2022-11-20T05:01:11;1.93;;;1.73;;
10467;SDS011;5281;48.878;9.394;2022-11-20T05:03:39;3.40;;;2.20;;
10467;SDS011;5281;48.878;9.394;2022-11-20T05:06:06;3.40;;;2.50;;
10467;SDS011;5281;48.878;9.394;2022-11-20T05:08:34;3.10;;;2.20;;
10467;SDS011;5281;48.878;9.394;2022-11-20T05:11:02;2.30;;;2.10;;
10467;SDS011;5281;48.878;9.394;2022-11-20T05:13:29;2.87;;;2.00;;
10467;SDS011;5281;48.878;9.394;2022-11-20T05:16:00;2.97;;;2.20;;
10467;SDS011;5281;48.878;9.394;2022-11-20T05:18:29;3.30;;;2.50;;
10467;SDS011;5281;48.878;9.394;2022-11-20T05:20:56;3.70;;;2.40;;
10467;SDS011;5281;48.878;9.394;2022-11-20T05:23:24;4.83;;;3.23;;
10467;SDS011;5281;48.878;9.394;2022-11-20T05:25:52;5.23;;;3.23;;
10467;SDS011;5281;48.878;9.394;2022-11-20T05:28:20;3.13;;;1.90;;
10467;SDS011;5281;48.878;9.394;2022-11-20T05:30:47;3.03;;;2.17;;
10467;SDS011;5281;48.878;9.394;2022-11-20T05:33:14;2.67;;;2.30;;
10467;SDS011;5281;48.878;9.394;2022-11-20T05:35:42;2.60;;;2.10;;
10467;SDS011;5281;48.878;9.394;2022-11-20T05:38:09;3.90;;;1.93;;
10467;SDS011;5281;48.878;9.394;2022-11-20T05:40:36;3.37;;;2.10;;
10467;SDS011;5281;48.878;9.394;2022-11-20T05:43:03;2.73;;;2.20;;
10467;SDS011;5281;48.878;9.394;2022-11-20T05:45:30;4.53;;;3.07;;
10467;SDS011;5281;48.878;9.394;2022-11-20T05:47:57;2.90;;;2.03;;
10467;SDS011;5281;48.878;9.394;2022-11-20T05:50:25;3.73;;;2.27;;
10467;SDS011;5281;48.878;9.394;2022-11-20T05:52:53;3.90;;;2.33;;
10467;SDS011;5281;48.878;9.394;2022-11-20T05:55:20;3.53;;;2.00;;
10467;SDS011;5281;48.878;9.394;2022-11-20T05:57:47;3.27;;;2.20;;
10467;SDS011;5281;48.878;9.394;2022-11-20T06:00:14;3.60;;;2.37;;
10467;SDS011;5281;48.878;9.394;2022-11-20T06:02:41;2.97;;;2.00;;
10467;SDS011;5281;48.878;9.394;2022-11-20T06:05:08;2.57;;;2.27;;
10467;SDS011;5281;48.878;9.394;2022-11-20T06:07:35;3.37;;;2.33;;
10467;SDS011;5281;48.878;9.394;2022-11-20T06:10:03;2.87;;;2.17;;
10467;SDS011;5281;48.878;9.394;2022-11-20T06:12:30;2.10;;;1.90;;
10467;SDS011;5281;48.878;9.394;2022-11-20T06:14:58;4.13;;;2.17;;
10467;SDS011;5281;48.878;9.394;2022-11-20T06:17:25;3.53;;;2.00;;
10467;SDS011;5281;48.878;9.394;2022-11-20T06:19:52;2.50;;;1.97;;
10467;SDS011;5281;48.878;9.394;2022-11-20T06:22:19;3.77;;;2.20;;
10467;SDS011;5281;48.878;9.394;2022-11-20T06:24:46;2.63;;;2.10;;
10467;SDS011;5281;48.878;9.394;2022-11-20T06:27:15;4.73;;;2.30;;
10467;SDS011;5281;48.878;9.394;2022-11-20T06:29:43;2.83;;;2.03;;
10467;SDS011;5281;48.878;9.394;2022-11-20T06:32:10;2.30;;;2.10;;
10467;SDS011;5281;48.878;9.394;2022-11-20T06:34:36;2.93;;;1.73;;
10467;SDS011;5281;48.878;9.394;2022-11-20T06:37:03;3.30;;;2.00;;
10467;SDS011;5281;48.878;9.394;2022-11-20T06:39:30;5.50;;;2.27;;
10467;SDS011;5281;48.878;9.394;2022-11-20T06:41:57;4.50;;;2.60;;
10467;SDS011;5281;48.878;9.394;2022-11-20T06:44:25;3.57;;;2.30;;
10467;SDS011;5281;48.878;9.394;2022-11-20T06:46:52;4.20;;;2.67;;
10467;SDS011;5281;48.878;9.394;2022-11-20T06:49:18;3.27;;;2.20;;
10467;SDS011;5281;48.878;9.394;2022-11-20T06:51:45;2.83;;;1.90;;
10467;SDS011;5281;48.878;9.394;2022-11-20T06:54:12;2.77;;;1.70;;
10467;SDS011;5281;48.878;9.394;2022-11-20T06:56:39;2.33;;;2.00;;
10467;SDS011;5281;48.878;9.394;2022-11-20T06:59:06;5.00;;;2.40;;
10467;SDS011;5281;48.878;9.394;2022-11-20T07:01:34;2.60;;;1.90;;
10467;SDS011;5281;48.878;9.394;2022-11-20T07:04:01;4.10;;;2.57;;
10467;SDS011;5281;48.878;9.394;2022-11-20T07:06:28;2.43;;;1.87;;
10467;SDS011;5281;48.878;9.394;2022-11-20T07:08:54;2.83;;;1.97;;
10467;SDS011;5281;48.878;9.394;2022-11-20T07:11:22;2.53;;;2.10;;
10467;SDS011;5281;48.878;9.394;2022-11-20T07:13:49;2.00;;;1.80;;
10467;SDS011;5281;48.878;9.394;2022-11-20T07:16:16;3.40;;;1.70;;
10467;SDS011;5281;48.878;9.394;2022-11-20T07:18:44;3.33;;;2.10;;
10467;SDS011;5281;48.878;9.394;2022-11-20T07:21:11;2.53;;;1.73;;
10467;SDS011;5281;48.878;9.394;2022-11-20T07:23:37;2.13;;;1.80;;
10467;SDS011;5281;48.878;9.394;2022-11-20T07:26:04;2.43;;;1.90;;
10467;SDS011;5281;48.878;9.394;2022-11-20T07:28:32;2.37;;;1.50;;
10467;SDS011;5281;48.878;9.394;2022-11-20T07:30:59;2.00;;;1.73;;
10467;SDS011;5281;48.878;9.394;2022-11-20T07:33:26;2.30;;;1.87;;
10467;SDS011;5281;48.878;9.394;2022-11-20T07:35:54;5.50;;;3.80;;
10467;SDS011;5281;48.878;9.394;2022-11-20T07:38:21;2.13;;;1.83;;
10467;SDS011;5281;48.878;9.394;2022-11-20T07:40:48;2.37;;;1.87;;
10467;SDS011;5281;48.878;9.394;2022-11-20T07:43:19;2.77;;;2.10;;
10467;SDS011;5281;48.878;9.394;2022-11-20T07:45:46;4.63;;;1.70;;
10467;SDS011;5281;48.878;9.394;2022-11-20T07:48:12;3.97;;;2.90;;
10467;SDS011;5281;48.878;9.394;2022-11-20T07:50:39;3.00;;;2.10;;
10467;SDS011;5281;48.878;9.394;2022-11-20T07:53:07;3.07;;;2.10;;
10467;SDS011;5281;48.878;9.394;2022-11-20T07:55:34;3.13;;;2.30;;
10467;SDS011;5281;48.878;9.394;2022-11-20T07:58:01;3.80;;;2.10;;
10467;SDS011;5281;48.878;9.394;2022-11-20T08:00:28;5.13;;;2.20;;
10467;SDS011;5281;48.878;9.394;2022-11-20T08:02:55;3.33;;;2.50;;
10467;SDS011;5281;48.878;9.394;2022-11-20T08:05:22;3.30;;;2.57;;
10467;SDS011;5281;48.878;9.394;2022-11-20T08:07:49;5.83;;;2.10;;
10467;SDS011;5281;48.878;9.394;2022-11-20T08:10:17;4.17;;;2.40;;
10467;SDS011;5281;48.878;9.394;2022-11-20T08:12:44;3.83;;;2.40;;
10467;SDS011;5281;48.878;9.394;2022-11-20T08:15:29;4.43;;;3.13;;
10467;SDS011;5281;48.878;9.394;2022-11-20T08:18:00;3.43;;;2.30;;
10467;SDS011;5281;48.878;9.394;2022-11-20T08:20:28;3.47;;;2.20;;
10467;SDS011;5281;48.878;9.394;2022-11-20T08:22:57;3.73;;;2.30;;
10467;SDS011;5281;48.878;9.394;2022-11-20T08:25:27;15.67;;;12.87;;
10467;SDS011;5281;48.878;9.394;2022-11-20T08:27:56;7.93;;;5.53;;
10467;SDS011;5281;48.878;9.394;2022-11-20T08:30:23;3.87;;;2.47;;
10467;SDS011;5281;48.878;9.394;2022-11-20T08:32:50;1.60;;;1.50;;
10467;SDS011;5281;48.878;9.394;2022-11-20T08:35:17;2.73;;;1.97;;
10467;SDS011;5281;48.878;9.394;2022-11-20T08:37:45;5.80;;;2.70;;
10467;SDS011;5281;48.878;9.394;2022-11-20T08:40:12;2.30;;;1.97;;
10467;SDS011;5281;48.878;9.394;2022-11-20T08:42:46;3.50;;;1.93;;
10467;SDS011;5281;48.878;9.394;2022-11-20T08:45:13;4.07;;;2.37;;
10467;SDS011;5281;48.878;9.394;2022-11-20T08:47:40;2.40;;;1.73;;
10467;SDS011;5281;48.878;9.394;2022-11-20T08:50:08;1.97;;;1.60;;
10467;SDS011;5281;48.878;9.394;2022-11-20T08:52:35;2.17;;;1.60;;
10467;SDS011;5281;48.878;9.394;2022-11-20T08:55:03;2.40;;;2.00;;
10467;SDS011;5281;48.878;9.394;2022-11-20T08:57:31;2.20;;;1.67;;
10467;SDS011;5281;48.878;9.394;2022-11-20T08:59:59;2.10;;;1.80;;
10467;SDS011;5281;48.878;9.394;2022-11-20T09:02:26;2.50;;;1.47;;
10467;SDS011;5281;48.878;9.394;2022-11-20T09:04:53;3.40;;;2.40;;
10467;SDS011;5281;48.878;9.394;2022-11-20T09:07:20;2.27;;;1.50;;
10467;SDS011;5281;48.878;9.394;2022-11-20T09:09:47;2.00;;;1.60;;
10467;SDS011;5281;48.878;9.394;2022-11-20T09:12:14;3.83;;;2.77;;
10467;SDS011;5281;48.878;9.394;2022-11-20T09:14:40;4.20;;;2.43;;
10467;SDS011;5281;48.878;9.394;2022-11-20T09:17:10;2.63;;;1.63;;
10467;SDS011;5281;48.878;9.394;2022-11-20T09:19:38;1.90;;;1.67;;
10467;SDS011;5281;48.878;9.394;2022-11-20T09:22:06;2.07;;;1.70;;
10467;SDS011;5281;48.878;9.394;2022-11-20T09:24:33;2.07;;;1.57;;
10467;SDS011;5281;48.878;9.394;2022-11-20T09:27:01;1.87;;;1.40;;
10467;SDS011;5281;48.878;9.394;2022-11-20T09:29:29;1.93;;;1.33;;
10467;SDS011;5281;48.878;9.394;2022-11-20T09:31:56;5.10;;;3.77;;
10467;SDS011;5281;48.878;9.394;2022-11-20T09:34:24;4.00;;;1.63;;
10467;SDS011;5281;48.878;9.394;2022-11-20T09:36:51;2.13;;;1.27;;
10467;SDS011;5281;48.878;9.394;2022-11-20T09:39:17;1.23;;;1.13;;
10467;SDS011;5281;48.878;9.394;2022-11-20T09:41:51;1.33;;;1.10;;
10467;SDS011;5281;48.878;9.394;2022-11-20T09:44:38;3.87;;;1.23;;
10467;SDS011;5281;48.878;9.394;2022-11-20T09:47:16;1.53;;;1.00;;
10467;SDS011;5281;48.878;9.394;2022-11-20T09:49:57;2.47;;;1.20;;
10467;SDS011;5281;48.878;9.394;2022-11-20T09:52:37;2.03;;;1.30;;
10467;SDS011;5281;48.878;9.394;2022-11-20T09:55:11;1.20;;;0.87;;
10467;SDS011;5281;48.878;9.394;2022-11-20T09:57:40;1.63;;;0.80;;
10467;SDS011;5281;48.878;9.394;2022-11-20T10:00:10;1.17;;;0.60;;
10467;SDS011;5281;48.878;9.394;2022-11-20T10:02:39;1.37;;;0.97;;
10467;SDS011;5281;48.878;9.394;2022-11-20T10:05:15;1.37;;;0.90;;
10467;SDS011;5281;48.878;9.394;2022-11-20T10:07:47;1.10;;;0.80;;
10467;SDS011;5281;48.878;9.394;2022-11-20T10:10:21;5.27;;;2.80;;
10467;SDS011;5281;48.878;9.394;2022-11-20T10:13:01;0.83;;;0.60;;
10467;SDS011;5281;48.878;9.394;2022-11-20T10:15:38;0.60;;;0.60;;
10467;SDS011;5281;48.878;9.394;2022-11-20T10:18:18;0.70;;;0.50;;
10467;SDS011;5281;48.878;9.394;2022-11-20T10:20:56;6.37;;;5.70;;
10467;SDS011;5281;48.878;9.394;2022-11-20T10:23:41;1.87;;;1.20;;
10467;SDS011;5281;48.878;9.394;2022-11-20T10:26:21;2.03;;;1.20;;
10467;SDS011;5281;48.878;9.394;2022-11-20T10:28:55;0.80;;;0.80;;
10467;SDS011;5281;48.878;9.394;2022-11-20T10:31:34;0.80;;;0.80;;
10467;SDS011;5281;48.878;9.394;2022-11-20T10:34:03;1.13;;;0.90;;
10467;SDS011;5281;48.878;9.394;2022-11-20T10:36:36;0.90;;;0.80;;
10467;SDS011;5281;48.878;9.394;2022-11-20T10:39:15;1.67;;;1.10;;
10467;SDS011;5281;48.878;9.394;2022-11-20T10:41:49;0.83;;;0.83;;
10467;SDS011;5281;48.878;9.394;2022-11-20T10:44:19;1.00;;;0.77;;
10467;SDS011;5281;48.878;9.394;2022-11-20T10:47:01;1.57;;;1.00;;
10467;SDS011;5281;48.878;9.394;2022-11-20T10:49:27;1.50;;;0.80;;
10467;SDS011;5281;48.878;9.394;2022-11-20T10:51:59;2.13;;;0.90;;
10467;SDS011;5281;48.878;9.394;2022-11-20T10:54:35;2.00;;;0.97;;
10467;SDS011;5281;48.878;9.394;2022-11-20T10:57:07;2.33;;;0.70;;
10467;SDS011;5281;48.878;9.394;2022-11-20T10:59:50;1.50;;;0.90;;
10467;SDS011;5281;48.878;9.394;2022-11-20T11:02:31;0.77;;;0.77;;
10467;SDS011;5281;48.878;9.394;2022-11-20T11:05:04;1.20;;;1.07;;
10467;SDS011;5281;48.878;9.394;2022-11-20T11:07:39;1.40;;;1.07;;
10467;SDS011;5281;48.878;9.394;2022-11-20T11:10:13;0.90;;;0.80;;
10467;SDS011;5281;48.878;9.394;2022-11-20T11:12:43;3.87;;;2.33;;
10467;SDS011;5281;48.878;9.394;2022-11-20T11:15:12;2.63;;;1.13;;
10467;SDS011;5281;48.878;9.394;2022-11-20T11:17:50;1.43;;;0.90;;
10467;SDS011;5281;48.878;9.394;2022-11-20T11:20:17;2.10;;;0.70;;
10467;SDS011;5281;48.878;9.394;2022-11-20T11:22:47;2.20;;;1.00;;
10467;SDS011;5281;48.878;9.394;2022-11-20T11:25:23;1.07;;;0.97;;
10467;SDS011;5281;48.878;9.394;2022-11-20T11:27:52;2.40;;;1.10;;
10467;SDS011;5281;48.878;9.394;2022-11-20T11:30:21;2.10;;;1.50;;
10467;SDS011;5281;48.878;9.394;2022-11-20T11:32:49;3.63;;;2.07;;
10467;SDS011;5281;48.878;9.394;2022-11-20T11:35:23;2.00;;;1.50;;
10467;SDS011;5281;48.878;9.394;2022-11-20T11:37:53;2.07;;;1.60;;
10467;SDS011;5281;48.878;9.394;2022-11-20T11:40:28;3.67;;;1.70;;
10467;SDS011;5281;48.878;9.394;2022-11-20T11:43:06;3.80;;;1.80;;
10467;SDS011;5281;48.878;9.394;2022-11-20T11:45:57;2.43;;;1.20;;
10467;SDS011;5281;48.878;9.394;2022-11-20T11:48:24;1.30;;;1.00;;
10467;SDS011;5281;48.878;9.394;2022-11-20T11:50:51;1.40;;;1.00;;
10467;SDS011;5281;48.878;9.394;2022-11-20T11:53:21;2.30;;;1.30;;
10467;SDS011;5281;48.878;9.394;2022-11-20T11:55:50;1.50;;;1.00;;
10467;SDS011;5281;48.878;9.394;2022-11-20T11:58:29;1.30;;;1.13;;
10467;SDS011;5281;48.878;9.394;2022-11-20T12:01:07;2.20;;;1.03;;
10467;SDS011;5281;48.878;9.394;2022-11-20T12:03:48;2.53;;;1.00;;
10467;SDS011;5281;48.878;9.394;2022-11-20T12:06:21;3.60;;;1.20;;
10467;SDS011;5281;48.878;9.394;2022-11-20T12:08:51;1.80;;;1.00;;
10467;SDS011;5281;48.878;9.394;2022-11-20T12:11:24;1.47;;;1.00;;
10467;SDS011;5281;48.878;9.394;2022-11-20T12:14:00;1.77;;;1.00;;
10467;SDS011;5281;48.878;9.394;2022-11-20T12:16:36;1.60;;;1.20;;
10467;SDS011;5281;48.878;9.394;2022-11-20T12:19:07;3.80;;;1.40;;
10467;SDS011;5281;48.878;9.394;2022-11-20T12:21:39;3.63;;;2.00;;
10467;SDS011;5281;48.878;9.394;2022-11-20T12:27:35;2.47;;;1.40;;
10467;SDS011;5281;48.878;9.394;2022-11-20T12:30:11;6.93;;;3.60;;
10467;SDS011;5281;48.878;9.394;2022-11-20T12:32:47;15.13;;;9.80;;
10467;SDS011;5281;48.878;9.394;2022-11-20T12:35:34;2.17;;;1.97;;
10467;SDS011;5281;48.878;9.394;2022-11-20T12:38:20;2.77;;;1.30;;
10467;SDS011;5281;48.878;9.394;2022-11-20T12:41:11;2.27;;;1.20;;
10467;SDS011;5281;48.878;9.394;2022-11-20T12:44:08;5.17;;;1.30;;
10467;SDS011;5281;48.878;9.394;2022-11-20T12:47:10;1.17;;;0.90;;
10467;SDS011;5281;48.878;9.394;2022-11-20T12:49:47;1.90;;;0.93;;
10467;SDS011;5281;48.878;9.394;2022-11-20T12:52:29;2.40;;;1.07;;
10467;SDS011;5281;48.878;9.394;2022-11-20T12:58:00;2.00;;;1.00;;
10467;SDS011;5281;48.878;9.394;2022-11-20T13:00:37;2.33;;;1.20;;
10467;SDS011;5281;48.878;9.394;2022-11-20T13:03:15;2.00;;;1.00;;
10467;SDS011;5281;48.878;9.394;2022-11-20T13:05:59;1.90;;;1.43;;
10467;SDS011;5281;48.878;9.394;2022-11-20T13:08:33;2.03;;;1.10;;
10467;SDS011;5281;48.878;9.394;2022-11-20T13:11:03;3.37;;;1.13;;
10467;SDS011;5281;48.878;9.394;2022-11-20T13:13:42;3.47;;;0.73;;
10467;SDS011;5281;48.878;9.394;2022-11-20T13:16:23;1.50;;;0.73;;
10467;SDS011;5281;48.878;9.394;2022-11-20T13:18:57;1.87;;;0.60;;
10467;SDS011;5281;48.878;9.394;2022-11-20T13:21:35;7.00;;;3.20;;
10467;SDS011;5281;48.878;9.394;2022-11-20T13:24:04;4.13;;;1.53;;
10467;SDS011;5281;48.878;9.394;2022-11-20T13:26:31;1.50;;;0.80;;
10467;SDS011;5281;48.878;9.394;2022-11-20T13:29:05;2.10;;;0.80;;
10467;SDS011;5281;48.878;9.394;2022-11-20T13:31:38;1.10;;;0.87;;
10467;SDS011;5281;48.878;9.394;2022-11-20T13:34:10;2.20;;;1.00;;
10467;SDS011;5281;48.878;9.394;2022-11-20T13:36:48;2.93;;;1.20;;
10467;SDS011;5281;48.878;9.394;2022-11-20T13:39:23;3.03;;;0.97;;
10467;SDS011;5281;48.878;9.394;2022-11-20T13:41:53;2.60;;;0.83;;
10467;SDS011;5281;48.878;9.394;2022-11-20T13:44:23;17.77;;;13.90;;
10467;SDS011;5281;48.878;9.394;2022-11-20T13:46:52;2.50;;;1.73;;
10467;SDS011;5281;48.878;9.394;2022-11-20T13:49:21;3.03;;;1.17;;
10467;SDS011;5281;48.878;9.394;2022-11-20T13:51:54;2.27;;;1.30;;
10467;SDS011;5281;48.878;9.394;2022-11-20T13:54:44;2.50;;;1.13;;
10467;SDS011;5281;48.878;9.394;2022-11-20T13:57:36;2.83;;;1.00;;
10467;SDS011;5281;48.878;9.394;2022-11-20T14:00:13;2.40;;;0.83;;
10467;SDS011;5281;48.878;9.394;2022-11-20T14:02:42;2.40;;;0.80;;
10467;SDS011;5281;48.878;9.394;2022-11-20T14:05:14;2.43;;;1.10;;
10467;SDS011;5281;48.878;9.394;2022-11-20T14:07:47;2.27;;;1.07;;
10467;SDS011;5281;48.878;9.394;2022-11-20T14:10:22;2.93;;;1.00;;
10467;SDS011;5281;48.878;9.394;2022-11-20T14:12:50;2.27;;;1.40;;
10467;SDS011;5281;48.878;9.394;2022-11-20T14:15:27;2.10;;;1.10;;
10467;SDS011;5281;48.878;9.394;2022-11-20T14:17:55;3.57;;;1.90;;
10467;SDS011;5281;48.878;9.394;2022-11-20T14:20:23;2.03;;;1.30;;
10467;SDS011;5281;48.878;9.394;2022-11-20T14:22:51;2.97;;;1.30;;
10467;SDS011;5281;48.878;9.394;2022-11-20T14:25:20;4.80;;;3.70;;
10467;SDS011;5281;48.878;9.394;2022-11-20T14:27:52;1.63;;;1.10;;
10467;SDS011;5281;48.878;9.394;2022-11-20T14:30:20;2.30;;;1.10;;
10467;SDS011;5281;48.878;9.394;2022-11-20T14:32:50;4.53;;;1.47;;
10467;SDS011;5281;48.878;9.394;2022-11-20T14:35:20;5.17;;;4.30;;
10467;SDS011;5281;48.878;9.394;2022-11-20T14:37:49;2.17;;;1.30;;
10467;SDS011;5281;48.878;9.394;2022-11-20T14:40:25;4.43;;;1.17;;
10467;SDS011;5281;48.878;9.394;2022-11-20T14:42:56;0.97;;;0.73;;
10467;SDS011;5281;48.878;9.394;2022-11-20T14:45:24;2.20;;;0.80;;
10467;SDS011;5281;48.878;9.394;2022-11-20T14:47:53;1.37;;;0.90;;
10467;SDS011;5281;48.878;9.394;2022-11-20T14:50:23;1.70;;;0.93;;
10467;SDS011;5281;48.878;9.394;2022-11-20T14:52:52;1.67;;;0.70;;
10467;SDS011;5281;48.878;9.394;2022-11-20T14:55:30;2.77;;;1.57;;
10467;SDS011;5281;48.878;9.394;2022-11-20T14:57:58;2.20;;;0.90;;
10467;SDS011;5281;48.878;9.394;2022-11-20T15:00:27;1.30;;;1.10;;
10467;SDS011;5281;48.878;9.394;2022-11-20T15:02:56;2.30;;;0.90;;
10467;SDS011;5281;48.878;9.394;2022-11-20T15:05:24;1.83;;;0.90;;
10467;SDS011;5281;48.878;9.394;2022-11-20T15:08:09;2.77;;;1.10;;
10467;SDS011;5281;48.878;9.394;2022-11-20T15:10:36;1.43;;;0.90;;
10467;SDS011;5281;48.878;9.394;2022-11-20T15:13:04;19.43;;;13.97;;
10467;SDS011;5281;48.878;9.394;2022-11-20T15:15:39;2.07;;;1.57;;
10467;SDS011;5281;48.878;9.394;2022-11-20T15:18:12;2.17;;;1.20;;
10467;SDS011;5281;48.878;9.394;2022-11-20T15:20:40;2.30;;;1.30;;
10467;SDS011;5281;48.878;9.394;2022-11-20T15:23:09;2.57;;;1.50;;
10467;SDS011;5281;48.878;9.394;2022-11-20T15:25:37;2.43;;;1.30;;